createdAt,value
2022-08-04T00:00:14.237Z,89.40
2022-08-04T00:03:11.401Z,89.50
2022-08-04T00:06:32.317Z,89.60
2022-08-04T00:09:11.759Z,89.40
2022-08-04T00:11:48.831Z,89.50
2022-08-04T00:14:22.756Z,89.70
2022-08-04T00:16:55.055Z,89.70
2022-08-04T00:19:32.342Z,89.70
2022-08-04T00:22:08.599Z,89.60
2022-08-04T00:24:41.745Z,89.70
2022-08-04T00:27:13.994Z,89.90
2022-08-04T00:29:47.383Z,90.00
2022-08-04T00:32:34.446Z,90.10
2022-08-04T00:35:09.783Z,90.20
2022-08-04T00:37:47.147Z,90.40
2022-08-04T00:40:39.775Z,90.40
2022-08-04T00:43:26.500Z,90.50
2022-08-04T00:46:16.815Z,90.50
2022-08-04T00:48:55.542Z,90.40
2022-08-04T00:51:42.620Z,90.30
2022-08-04T00:54:50.966Z,90.30
2022-08-04T00:57:48.885Z,90.30
2022-08-04T01:00:21.221Z,90.40
2022-08-04T01:03:18.254Z,90.40
2022-08-04T01:06:08.624Z,90.40
2022-08-04T01:08:55.602Z,90.50
2022-08-04T01:11:58.439Z,90.50
2022-08-04T01:14:56.375Z,90.50
2022-08-04T01:17:40.183Z,90.50
2022-08-04T01:20:20.559Z,90.50
2022-08-04T01:23:26.400Z,90.60
2022-08-04T01:26:42.760Z,90.60
2022-08-04T01:29:10.341Z,90.60
2022-08-04T01:32:04.918Z,90.60
2022-08-04T01:35:10.618Z,90.60
2022-08-04T01:38:02.664Z,90.70
2022-08-04T01:40:56.867Z,90.70
2022-08-04T01:43:32.478Z,90.70
2022-08-04T01:46:05.328Z,90.70
2022-08-04T01:48:40.080Z,90.80
2022-08-04T01:51:12.049Z,90.80
2022-08-04T01:53:44.761Z,90.80
2022-08-04T01:56:17.182Z,90.90
2022-08-04T01:58:49.051Z,90.90
2022-08-04T02:01:21.037Z,90.90
2022-08-04T02:04:18.363Z,91.00
2022-08-04T02:07:07.392Z,91.00
2022-08-04T02:10:02.195Z,91.00
2022-08-04T02:12:53.134Z,91.10
2022-08-04T02:15:27.423Z,91.10
2022-08-04T02:18:19.664Z,91.20
2022-08-04T02:20:58.905Z,91.50
2022-08-04T02:23:41.781Z,91.20
2022-08-04T02:26:22.271Z,91.30
2022-08-04T02:29:03.896Z,91.40
2022-08-04T02:31:53.632Z,91.50
2022-08-04T02:34:48.805Z,91.30
2022-08-04T02:37:22.824Z,91.20
2022-08-04T02:39:58.991Z,91.40
2022-08-04T02:42:33.024Z,91.20
2022-08-04T02:45:06.816Z,91.30
2022-08-04T02:48:29.036Z,91.20
2022-08-04T02:50:35.866Z,91.00
2022-08-04T02:53:13.112Z,91.00
2022-08-04T02:55:50.460Z,91.20
2022-08-04T02:58:25.961Z,91.40
2022-08-04T03:00:57.916Z,91.50
2022-08-04T03:03:41.038Z,91.80
2022-08-04T03:06:15.695Z,91.60
2022-08-04T03:09:25.092Z,92.10
2022-08-04T03:12:07.059Z,92.20
2022-08-04T03:14:57.583Z,92.30
2022-08-04T03:17:52.739Z,92.30
2022-08-04T03:20:31.335Z,92.20
2022-08-04T03:23:33.263Z,92.30
2022-08-04T03:26:32.049Z,92.40
2022-08-04T03:29:37.181Z,92.30
2022-08-04T03:32:29.719Z,92.30
2022-08-04T03:35:07.274Z,92.20
2022-08-04T03:37:51.434Z,92.50
2022-08-04T03:40:42.038Z,92.40
2022-08-04T03:43:57.014Z,92.50
2022-08-04T03:46:53.466Z,92.80
2022-08-04T03:49:38.770Z,92.60
2022-08-04T03:53:03.593Z,92.90
2022-08-04T03:55:52.704Z,93.20
2022-08-04T03:59:01.921Z,93.30
2022-08-04T04:02:02.681Z,93.40
2022-08-04T04:04:52.485Z,93.80
2022-08-04T04:07:54.028Z,93.90
2022-08-04T04:10:52.673Z,94.00
2022-08-04T04:13:47.028Z,94.40
2022-08-04T04:16:28.028Z,94.40
2022-08-04T04:19:29.978Z,94.20
2022-08-04T04:22:10.700Z,94.60
2022-08-04T04:25:11.396Z,94.50
2022-08-04T04:28:45.865Z,94.50
2022-08-04T04:31:25.347Z,94.60
2022-08-04T04:34:08.878Z,94.30
2022-08-04T04:37:01.909Z,94.20
2022-08-04T04:39:52.527Z,94.00
2022-08-04T04:42:30.100Z,93.90
2022-08-04T04:45:24.380Z,94.00
2022-08-04T04:48:28.775Z,94.30
2022-08-04T04:51:03.375Z,94.40
2022-08-04T04:54:00.071Z,93.90
2022-08-04T04:56:47.363Z,93.40
2022-08-04T04:59:22.977Z,92.90
2022-08-04T05:02:18.843Z,92.20
2022-08-04T05:04:57.839Z,92.00
2022-08-04T05:07:59.732Z,92.10
2022-08-04T05:11:14.825Z,91.30
2022-08-04T05:14:44.915Z,90.40
2022-08-04T05:17:31.920Z,90.00
2022-08-04T05:20:27.091Z,90.20
2022-08-04T05:23:14.190Z,90.00
2022-08-04T05:26:08.271Z,89.30
2022-08-04T05:28:43.510Z,88.60
2022-08-04T05:31:26.600Z,88.10
2022-08-04T05:34:05.687Z,88.10
2022-08-04T05:36:48.605Z,87.50
2022-08-04T05:39:24.255Z,87.00
2022-08-04T05:42:04.158Z,85.60
2022-08-04T05:44:38.321Z,85.50
2022-08-04T05:47:12.930Z,85.70
2022-08-04T05:49:45.774Z,85.20
2022-08-04T05:52:36.536Z,84.30
2022-08-04T05:55:12.667Z,83.80
2022-08-04T05:58:05.321Z,82.80
2022-08-04T06:00:41.562Z,82.10
2022-08-04T06:03:14.620Z,81.10
2022-08-04T06:05:48.456Z,81.40
2022-08-04T06:08:20.526Z,81.00
2022-08-04T06:10:54.034Z,80.00
2022-08-04T06:13:45.419Z,79.90
2022-08-04T06:16:29.785Z,79.30
2022-08-04T06:19:59.652Z,78.50
2022-08-04T06:22:00.149Z,77.80
2022-08-04T06:24:36.105Z,77.10
2022-08-04T06:27:08.768Z,76.20
2022-08-04T06:29:51.660Z,74.40
2022-08-04T06:32:34.751Z,73.80
2022-08-04T06:35:09.911Z,73.50
2022-08-04T06:37:44.415Z,72.30
2022-08-04T06:40:32.533Z,72.40
2022-08-04T06:43:07.204Z,73.10
2022-08-04T06:45:41.366Z,73.20
2022-08-04T06:48:16.911Z,73.20
2022-08-04T06:51:24.918Z,73.50
2022-08-04T06:53:42.903Z,72.60
2022-08-04T06:56:20.112Z,73.40
2022-08-04T06:58:56.386Z,72.50
2022-08-04T07:01:30.603Z,73.40
2022-08-04T07:04:03.263Z,74.30
2022-08-04T07:06:35.927Z,74.20
2022-08-04T07:09:08.414Z,72.60
2022-08-04T07:11:44.709Z,72.50
2022-08-04T07:14:18.013Z,72.90
2022-08-04T07:16:50.709Z,73.10
2022-08-04T07:19:22.611Z,72.40
2022-08-04T07:22:17.923Z,72.10
2022-08-04T07:24:46.776Z,70.80
2022-08-04T07:27:48.649Z,70.60
2022-08-04T07:30:13.151Z,71.20
2022-08-04T07:32:46.219Z,71.50
2022-08-04T07:36:03.724Z,72.60
2022-08-04T07:38:11.947Z,72.40
2022-08-04T07:40:44.516Z,72.70
2022-08-04T07:43:17.315Z,73.00
2022-08-04T07:45:49.506Z,73.10
2022-08-04T07:48:23.202Z,73.40
2022-08-04T07:50:55.695Z,71.90
2022-08-04T07:53:55.012Z,71.90
2022-08-04T07:56:20.375Z,71.10
2022-08-04T07:58:52.366Z,71.40
2022-08-04T08:01:25.107Z,70.80
2022-08-04T08:03:59.782Z,70.00
2022-08-04T08:06:34.889Z,69.80
2022-08-04T08:09:16.766Z,70.20
2022-08-04T08:12:37.696Z,70.60
2022-08-04T08:14:43.587Z,71.10
2022-08-04T08:17:15.588Z,70.20
2022-08-04T08:19:47.624Z,70.70
2022-08-04T08:22:19.616Z,69.50
2022-08-04T08:24:51.705Z,68.30
2022-08-04T08:27:24.126Z,68.10
2022-08-04T08:29:56.598Z,68.80
2022-08-04T08:32:28.841Z,69.70
2022-08-04T08:35:01.526Z,69.90
2022-08-04T08:37:42.072Z,69.10
2022-08-04T08:40:46.407Z,68.80
2022-08-04T08:44:04.748Z,67.40
2022-08-04T08:47:16.676Z,67.90
2022-08-04T08:50:36.939Z,66.70
2022-08-04T08:53:16.863Z,67.80
2022-08-04T08:56:21.305Z,68.30
2022-08-04T08:59:34.285Z,68.70
2022-08-04T09:02:35.235Z,67.10
2022-08-04T09:05:16.051Z,66.30
2022-08-04T09:08:00.179Z,66.70
2022-08-04T09:10:47.878Z,66.50
2022-08-04T09:13:48.225Z,66.80
2022-08-04T09:16:28.468Z,65.70
2022-08-04T09:19:06.351Z,65.90
2022-08-04T09:21:50.171Z,66.10
2022-08-04T09:24:35.491Z,63.90
2022-08-04T09:27:18.991Z,63.80
2022-08-04T09:30:10.138Z,64.40
2022-08-04T09:33:03.612Z,65.10
2022-08-04T09:35:48.680Z,62.70
2022-08-04T09:38:36.089Z,63.10
2022-08-04T09:41:40.788Z,63.80
2022-08-04T09:44:49.425Z,64.00
2022-08-04T09:47:40.695Z,65.00
2022-08-04T09:50:32.549Z,64.20
2022-08-04T09:53:28.978Z,62.70
2022-08-04T09:56:04.052Z,62.40
2022-08-04T09:59:12.469Z,61.90
2022-08-04T10:01:59.895Z,60.80
2022-08-04T10:04:34.233Z,61.90
2022-08-04T10:07:27.593Z,61.00
2022-08-04T10:10:17.634Z,60.70
2022-08-04T10:13:14.037Z,61.40
2022-08-04T10:16:07.315Z,60.60
2022-08-04T10:18:56.981Z,59.50
2022-08-04T10:21:59.018Z,59.60
2022-08-04T10:24:31.634Z,60.40
2022-08-04T10:27:18.912Z,60.60
2022-08-04T10:29:51.276Z,61.30
2022-08-04T10:32:39.936Z,60.00
2022-08-04T10:35:18.421Z,60.70
2022-08-04T10:38:33.682Z,61.20
2022-08-04T10:41:18.431Z,62.30
2022-08-04T10:44:13.367Z,61.80
2022-08-04T10:46:52.933Z,62.00
2022-08-04T10:49:42.654Z,62.80
2022-08-04T10:52:33.735Z,62.80
2022-08-04T10:56:06.608Z,62.10
2022-08-04T10:58:25.073Z,62.00
2022-08-04T11:01:59.518Z,62.50
2022-08-04T11:04:40.058Z,62.30
2022-08-04T11:07:13.616Z,61.80
2022-08-04T11:09:46.667Z,62.00
2022-08-04T11:12:25.502Z,62.30
2022-08-04T11:15:08.869Z,61.70
2022-08-04T11:17:56.669Z,62.40
2022-08-04T11:20:42.608Z,61.90
2022-08-04T11:23:17.497Z,62.00
2022-08-04T11:26:11.130Z,62.00
2022-08-04T11:29:17.271Z,62.00
2022-08-04T11:31:52.054Z,61.50
2022-08-04T11:34:26.445Z,61.00
2022-08-04T11:37:15.901Z,61.40
2022-08-04T11:40:03.024Z,61.40
2022-08-04T11:42:39.798Z,60.70
2022-08-04T11:45:16.614Z,60.90
2022-08-04T11:47:57.667Z,60.50
2022-08-04T11:50:39.213Z,60.70
2022-08-04T11:53:19.443Z,61.00
2022-08-04T11:56:08.241Z,61.10
2022-08-04T11:58:41.883Z,60.80
2022-08-04T12:01:28.260Z,60.60
2022-08-04T12:04:21.074Z,61.20
2022-08-04T12:07:15.020Z,60.60
2022-08-04T12:10:16.714Z,60.70
2022-08-04T12:13:49.089Z,60.40
2022-08-04T12:16:30.482Z,60.20
2022-08-04T12:19:10.039Z,60.40
2022-08-04T12:21:55.931Z,60.30
2022-08-04T12:24:41.576Z,61.00
2022-08-04T12:27:25.991Z,61.50
2022-08-04T12:30:58.922Z,60.60
2022-08-04T12:33:03.742Z,60.40
2022-08-04T12:36:10.495Z,61.10
2022-08-04T12:38:49.744Z,60.60
2022-08-04T12:41:26.037Z,60.50
2022-08-04T12:44:06.648Z,60.20
2022-08-04T12:46:46.513Z,60.70
2022-08-04T12:49:21.925Z,60.50
2022-08-04T12:52:08.654Z,59.90
2022-08-04T12:54:43.702Z,59.80
2022-08-04T12:57:18.441Z,60.40
2022-08-04T12:59:56.915Z,60.80
2022-08-04T13:02:33.139Z,60.60
2022-08-04T13:05:09.229Z,59.50
2022-08-04T13:07:50.789Z,60.50
2022-08-04T13:10:30.315Z,60.60
2022-08-04T13:13:03.644Z,60.30
2022-08-04T13:15:47.590Z,60.10
2022-08-04T13:18:32.491Z,59.80
2022-08-04T13:21:22.801Z,59.80
2022-08-04T13:24:21.043Z,59.70
2022-08-04T13:30:04.933Z,59.80
2022-08-04T13:30:24.443Z,59.70
2022-08-04T13:32:37.167Z,59.50
2022-08-04T13:35:09.928Z,59.10
2022-08-04T13:37:43.276Z,59.30
2022-08-04T13:40:16.228Z,59.90
2022-08-04T13:42:49.251Z,59.10
2022-08-04T13:45:23.179Z,59.90
2022-08-04T13:48:20.197Z,59.70
2022-08-04T13:51:05.200Z,60.40
2022-08-04T13:53:40.411Z,60.60
2022-08-04T13:56:15.541Z,60.40
2022-08-04T13:58:49.577Z,60.20
2022-08-04T14:01:35.918Z,59.90
2022-08-04T14:04:26.732Z,59.70
2022-08-04T14:07:17.693Z,60.00
2022-08-04T14:10:03.779Z,59.60
2022-08-04T14:12:46.257Z,59.30
2022-08-04T14:16:02.503Z,59.50
2022-08-04T14:18:33.859Z,59.80
2022-08-04T14:21:13.727Z,59.20
2022-08-04T14:23:52.230Z,59.80
2022-08-04T14:26:32.384Z,59.30
2022-08-04T14:29:27.282Z,59.90
2022-08-04T14:32:03.234Z,59.90
2022-08-04T14:34:41.318Z,59.60
2022-08-04T14:37:19.822Z,59.60
2022-08-04T14:40:07.816Z,59.90
2022-08-04T14:42:54.674Z,59.90
2022-08-04T14:45:29.626Z,59.20
2022-08-04T14:48:15.102Z,59.80
2022-08-04T14:50:48.866Z,59.10
2022-08-04T14:53:24.173Z,59.50
2022-08-04T14:55:58.544Z,59.40
2022-08-04T14:58:39.478Z,59.40
2022-08-04T15:01:12.970Z,59.60
2022-08-04T15:03:50.237Z,58.60
2022-08-04T15:06:26.435Z,58.70
2022-08-04T15:09:01.958Z,58.90
2022-08-04T15:11:40.151Z,59.20
2022-08-04T15:14:36.376Z,59.00
2022-08-04T15:17:12.343Z,58.50
2022-08-04T15:19:59.983Z,58.20
2022-08-04T15:22:31.842Z,57.90
2022-08-04T15:25:04.128Z,58.30
2022-08-04T15:27:39.516Z,58.60
2022-08-04T15:30:13.722Z,58.80
2022-08-04T15:32:56.306Z,58.70
2022-08-04T15:35:38.742Z,58.20
2022-08-04T15:38:27.854Z,57.90
2022-08-04T15:41:08.037Z,58.20
2022-08-04T15:43:55.562Z,57.40
2022-08-04T15:46:46.312Z,57.40
2022-08-04T15:49:21.844Z,57.80
2022-08-04T15:52:12.600Z,57.50
2022-08-04T15:54:52.573Z,57.40
2022-08-04T15:58:03.383Z,57.40
2022-08-04T16:00:56.646Z,57.00
2022-08-04T16:03:58.853Z,57.00
2022-08-04T16:06:29.245Z,56.60
2022-08-04T16:09:04.934Z,56.90
2022-08-04T16:11:40.520Z,57.70
2022-08-04T16:14:12.479Z,57.10
2022-08-04T16:16:48.002Z,56.70
2022-08-04T16:19:36.360Z,57.00
2022-08-04T16:22:13.097Z,56.60
2022-08-04T16:24:52.276Z,56.30
2022-08-04T16:27:44.705Z,56.30
2022-08-04T16:30:17.700Z,56.40
2022-08-04T16:32:52.187Z,56.70
2022-08-04T16:35:26.963Z,57.30
2022-08-04T16:38:25.437Z,56.40
2022-08-04T16:40:59.203Z,56.40
2022-08-04T16:43:32.439Z,56.10
2022-08-04T16:46:05.073Z,56.60
2022-08-04T16:48:37.136Z,56.80
2022-08-04T16:51:10.484Z,56.90
2022-08-04T16:53:52.576Z,56.70
2022-08-04T16:56:36.302Z,57.10
2022-08-04T16:59:10.028Z,56.50
2022-08-04T17:01:50.707Z,56.90
2022-08-04T17:04:33.751Z,57.20
2022-08-04T17:07:06.347Z,57.20
2022-08-04T17:09:49.768Z,57.50
2022-08-04T17:12:28.865Z,57.40
2022-08-04T17:15:00.759Z,57.30
2022-08-04T17:17:59.161Z,57.20
2022-08-04T17:20:27.693Z,56.50
2022-08-04T17:24:12.563Z,57.40
2022-08-04T17:26:42.095Z,58.00
2022-08-04T17:29:44.110Z,58.00
2022-08-04T17:32:18.737Z,57.50
2022-08-04T17:34:57.509Z,57.70
2022-08-04T17:37:52.732Z,58.10
2022-08-04T17:40:25.785Z,57.90
2022-08-04T17:44:01.209Z,57.80
2022-08-04T17:46:37.562Z,58.10
2022-08-04T17:49:16.817Z,58.40
2022-08-04T17:52:04.432Z,58.60
2022-08-04T17:54:40.812Z,59.20
2022-08-04T17:57:20.253Z,59.20
2022-08-04T17:59:59.142Z,59.60
2022-08-04T18:02:35.022Z,59.20
2022-08-04T18:05:11.851Z,59.80
2022-08-04T18:08:40.280Z,59.80
2022-08-04T18:13:42.837Z,60.20
2022-08-04T18:16:22.143Z,60.20
2022-08-04T18:19:11.721Z,60.70
2022-08-04T18:22:00.279Z,60.70
2022-08-04T18:24:56.475Z,60.60
2022-08-04T18:27:29.923Z,60.80
2022-08-04T18:30:31.188Z,61.20
2022-08-04T18:33:24.408Z,61.40
2022-08-04T18:36:33.077Z,61.50
2022-08-04T18:38:55.416Z,61.70
2022-08-04T18:41:28.746Z,62.00
2022-08-04T18:47:19.609Z,62.40
2022-08-04T18:51:00.805Z,62.60
2022-08-04T18:52:47.307Z,63.00
2022-08-04T18:55:55.949Z,63.30
2022-08-04T18:58:27.353Z,63.50
2022-08-04T19:01:01.405Z,63.60
2022-08-04T19:03:33.539Z,63.90
2022-08-04T19:06:07.492Z,64.20
2022-08-04T19:08:42.260Z,64.40
2022-08-04T19:11:36.846Z,64.90
2022-08-04T19:16:57.175Z,65.50
2022-08-04T19:19:49.739Z,65.90
2022-08-04T19:22:36.168Z,66.00
2022-08-04T19:25:13.151Z,66.30
2022-08-04T19:28:05.208Z,66.40
2022-08-04T19:30:38.719Z,66.40
2022-08-04T19:33:14.167Z,66.40
2022-08-04T19:35:50.789Z,66.80
2022-08-04T19:38:22.933Z,66.70
2022-08-04T19:40:56.332Z,67.10
2022-08-04T19:43:28.212Z,67.00
2022-08-04T19:46:03.654Z,66.40
2022-08-04T19:48:36.027Z,66.70
2022-08-04T19:51:08.783Z,66.90
2022-08-04T19:53:43.153Z,67.40
2022-08-04T19:56:17.223Z,67.80
2022-08-04T19:58:49.080Z,67.90
2022-08-04T20:01:31.579Z,68.40
2022-08-04T20:04:11.093Z,68.40
2022-08-04T20:06:43.546Z,68.60
2022-08-04T20:09:26.665Z,68.80
2022-08-04T20:11:59.019Z,68.60
2022-08-04T20:14:32.840Z,68.70
2022-08-04T20:17:10.074Z,68.80
2022-08-04T20:19:51.568Z,68.90
2022-08-04T20:22:51.890Z,69.20
2022-08-04T20:28:09.185Z,69.50
2022-08-04T20:30:57.787Z,69.60
2022-08-04T20:33:29.701Z,69.60
2022-08-04T20:36:05.847Z,69.50
2022-08-04T20:38:38.570Z,69.80
2022-08-04T20:41:10.547Z,69.50
2022-08-04T20:43:49.560Z,69.60
2022-08-04T20:46:29.268Z,69.70
2022-08-04T20:49:01.826Z,69.90
2022-08-04T20:51:40.122Z,70.50
2022-08-04T20:54:16.619Z,70.70
2022-08-04T20:56:51.085Z,70.70
2022-08-04T20:59:23.405Z,70.70
2022-08-04T21:01:56.763Z,70.80
2022-08-04T21:04:43.527Z,71.10
2022-08-04T21:07:18.568Z,71.40
2022-08-04T21:09:51.550Z,71.30
2022-08-04T21:12:28.514Z,71.40
2022-08-04T21:15:13.279Z,71.40
2022-08-04T21:17:59.224Z,71.30
2022-08-04T21:20:42.400Z,71.60
2022-08-04T21:23:14.732Z,71.60
2022-08-04T21:25:54.629Z,71.80
2022-08-04T21:28:27.152Z,71.90
2022-08-04T21:31:02.459Z,72.20
2022-08-04T21:33:50.952Z,72.10
2022-08-04T21:36:27.252Z,72.30
2022-08-04T21:38:59.604Z,72.00
2022-08-04T21:41:32.559Z,72.10
2022-08-04T21:44:04.760Z,72.30
2022-08-04T21:46:44.259Z,72.40
2022-08-04T21:49:16.682Z,72.60
2022-08-04T21:51:59.858Z,72.70
2022-08-04T21:54:34.536Z,72.70
2022-08-04T21:57:09.416Z,73.10
2022-08-04T21:59:45.306Z,72.90
2022-08-04T22:02:18.134Z,73.40
2022-08-04T22:04:51.275Z,73.40
2022-08-04T22:07:23.729Z,73.30
2022-08-04T22:10:02.550Z,73.30
2022-08-04T22:12:35.416Z,73.30
2022-08-04T22:16:02.734Z,73.20
2022-08-04T22:18:05.295Z,73.50
2022-08-04T22:20:37.214Z,73.50
2022-08-04T22:23:17.018Z,73.40
2022-08-04T22:25:55.875Z,73.30
2022-08-04T22:28:30.264Z,73.50
2022-08-04T22:31:23.853Z,73.50
2022-08-04T22:33:56.151Z,73.50
2022-08-04T22:36:28.215Z,73.50
2022-08-04T22:39:07.004Z,73.50
2022-08-04T22:41:48.612Z,73.60
2022-08-04T22:44:32.397Z,73.80
2022-08-04T22:47:05.622Z,74.20
2022-08-04T22:49:38.474Z,74.00
2022-08-04T22:52:18.673Z,74.20
2022-08-04T22:55:01.027Z,74.10
2022-08-04T22:57:43.619Z,74.10
2022-08-04T23:00:28.664Z,74.00
2022-08-04T23:03:01.172Z,73.90
2022-08-04T23:05:35.866Z,73.90
2022-08-04T23:08:08.072Z,73.90
2022-08-04T23:10:43.905Z,74.20
2022-08-04T23:13:16.583Z,74.10
2022-08-04T23:15:49.149Z,74.00
2022-08-04T23:18:26.783Z,74.00
2022-08-04T23:20:58.844Z,73.90
2022-08-04T23:23:32.437Z,74.00
2022-08-04T23:26:14.531Z,74.00
2022-08-04T23:28:47.324Z,74.10
2022-08-04T23:31:19.286Z,74.10
2022-08-04T23:33:52.292Z,74.10
2022-08-04T23:36:30.062Z,74.20
2022-08-04T23:39:06.241Z,74.10
2022-08-04T23:41:53.583Z,74.30
2022-08-04T23:44:29.301Z,74.20
2022-08-04T23:47:02.032Z,74.30
2022-08-04T23:49:44.197Z,74.50
2022-08-04T23:52:27.882Z,74.50
2022-08-04T23:55:02.308Z,74.60
2022-08-04T23:58:05.929Z,74.80
